Terminal Aerodrome Forecast
Issued by NWS

Home | Current Version | Previous Version | Text Only | Print | Product List | Glossary On
Versions: 1 2 3 4 5 6 7 8 9 10 11 12 13 14 15
000
FTUS43 KMQT 191453 AAD
TAFSAW
TAF AMD
KSAW 191453Z 1915/2012 36015KT P6SM OVC004
     FM191600 36012G19KT 5SM -SN OVC006
      TEMPO 1916/1917 P6SM NSW OVC004
     FM191900 36013G20KT 1SM -SN OVC010
     FM192300 03013G21KT 1SM -FZDZSN OVC008
     FM200400 03011KT 2SM -FZDZSN OVC008=

USA.gov is the U.S. government's official web portal to all federal, state and local government web resources and services.